Time;durP1;ratioP1;P1;durP2;ratioP2;P2;SDS_P1;SDS_P2;PMS_P1;PMS_P2;Temp;Humidity;BMP_temperature;BMP_pressure;BME280_temperature;BME280_humidity;BME280_pressure;Samples;Min_cycle;Max_cycle;Signal;HPM_P1;HPM_P2
2022/03/31 00:01:47;;;;;;;25.85;5.75;;;;;;;14.34;36.66;96507.28;10334658;28;20309;-61
2022/03/31 00:06:46;;;;;;;18.00;5.35;;;;;;;14.43;36.66;96510.44;10334308;28;20112;-61
2022/03/31 00:11:45;;;;;;;23.17;9.60;;;;;;;14.43;36.18;96513.06;10333562;28;20065;-61
2022/03/31 00:16:44;;;;;;;23.77;9.68;;;;;;;14.25;36.24;96475.44;10333509;28;20040;-61
2022/03/31 00:21:43;;;;;;;25.67;11.15;;;;;;;14.08;36.21;96463.84;10332160;28;20041;-61
2022/03/31 00:26:42;;;;;;;19.45;8.07;;;;;;;14.24;37.01;96505.91;10327048;28;20025;-61
2022/03/31 00:31:41;;;;;;;20.83;7.13;;;;;;;14.17;37.36;96514.81;10333296;28;20103;-61
2022/03/31 00:36:40;;;;;;;16.52;5.38;;;;;;;13.96;38.20;96499.03;10332502;28;20057;-61
2022/03/31 00:41:39;;;;;;;18.52;6.45;;;;;;;13.57;38.10;96468.19;10332565;28;20107;-61
2022/03/31 00:46:49;;;;;;;17.75;5.68;;;;;;;13.35;38.35;96430.69;10332571;28;20510;-61
2022/03/31 00:51:50;;;;;;;19.70;5.05;;;;;;;13.19;38.40;96398.22;10332111;28;20508;-61
2022/03/31 00:56:50;;;;;;;27.83;6.85;;;;;;;13.66;38.16;96468.81;10331638;28;20073;-61
2022/03/31 01:01:49;;;;;;;31.13;6.65;;;;;;;13.86;37.87;96486.38;10325887;28;20072;-61
2022/03/31 01:06:49;;;;;;;17.23;6.28;;;;;;;13.92;37.28;96481.78;10335451;28;20069;-61
2022/03/31 01:11:48;;;;;;;16.40;6.20;;;;;;;14.01;36.88;96479.75;10334759;28;20064;-61
2022/03/31 01:16:47;;;;;;;23.60;6.97;;;;;;;14.03;36.75;96471.00;10334928;28;20068;-61
2022/03/31 01:21:46;;;;;;;37.45;7.40;;;;;;;14.08;36.38;96460.41;10334372;28;20029;-61
2022/03/31 01:26:45;;;;;;;19.80;7.35;;;;;;;13.90;36.73;96452.31;10334378;28;20423;-62
2022/03/31 01:31:44;;;;;;;18.38;6.30;;;;;;;13.80;36.66;96435.28;10328380;28;20057;-61
2022/03/31 01:36:43;;;;;;;18.13;6.10;;;;;;;13.91;36.49;96450.53;10334010;28;20044;-61
2022/03/31 01:41:42;;;;;;;20.60;6.72;;;;;;;14.09;36.68;96486.41;10332658;28;20038;-61
2022/03/31 01:46:41;;;;;;;19.90;6.10;;;;;;;14.10;36.90;96474.22;10333999;28;20091;-61
2022/03/31 01:51:40;;;;;;;20.60;6.55;;;;;;;14.05;37.03;96471.75;10333875;28;20036;-62
2022/03/31 01:56:43;;;;;;;15.38;6.55;;;;;;;14.09;37.24;96475.97;10333987;28;20037;-61
2022/03/31 02:01:42;;;;;;;25.48;6.53;;;;;;;13.73;37.15;96398.16;10327566;28;20077;-61
2022/03/31 02:06:41;;;;;;;21.33;6.57;;;;;;;13.94;36.95;96404.34;10330528;28;20079;-61
2022/03/31 02:11:40;;;;;;;;;;;;;;;14.26;36.96;96462.31;10330327;28;20076;-61
2022/03/31 02:16:39;;;;;;;19.20;6.20;;;;;;;14.24;37.13;96458.94;10330022;28;19948;-62
2022/03/31 02:21:38;;;;;;;;;;;;;;;14.25;37.38;96446.75;10330351;28;20068;-61
2022/03/31 02:26:38;;;;;;;24.02;6.53;;;;;;;14.20;37.04;96437.31;10330111;28;19949;-61
2022/03/31 02:31:37;;;;;;;;;;;;;;;14.16;37.39;96429.66;10324500;28;20084;-61
2022/03/31 02:36:36;;;;;;;25.57;7.53;;;;;;;13.46;37.29;96326.94;10329809;28;19959;-61
2022/03/31 02:41:35;;;;;;;17.10;6.10;;;;;;;13.99;37.60;96431.13;10330323;28;20037;-61
2022/03/31 02:46:34;;;;;;;27.02;7.10;;;;;;;13.96;37.81;96420.81;10336754;28;20089;-61
2022/03/31 02:51:33;;;;;;;25.60;7.47;;;;;;;13.89;38.20;96411.50;10336768;28;20033;-61
2022/03/31 02:56:32;;;;;;;17.98;6.18;;;;;;;13.92;38.66;96416.59;10336576;28;20018;-61
2022/03/31 03:01:31;;;;;;;21.88;7.35;;;;;;;13.88;38.44;96401.97;10330644;28;20068;-61
2022/03/31 03:06:30;;;;;;;17.27;6.55;;;;;;;13.94;38.81;96393.94;10336500;28;20037;-61
2022/03/31 03:11:29;;;;;;;16.55;6.07;;;;;;;13.92;38.83;96394.88;10336290;28;20033;-61
2022/03/31 03:16:28;;;;;;;22.23;6.40;;;;;;;13.93;39.05;96392.19;10335803;28;20071;-61
2022/03/31 03:21:27;;;;;;;23.52;7.07;;;;;;;13.94;39.11;96396.53;10336181;28;20042;-61
2022/03/31 03:26:27;;;;;;;22.92;6.43;;;;;;;13.92;39.53;96382.69;10335858;28;20485;-61
2022/03/31 03:31:25;;;;;;;20.75;6.53;;;;;;;13.97;39.10;96364.28;10334875;28;20160;-61
2022/03/31 03:36:27;;;;;;;20.70;6.35;;;;;;;13.96;39.31;96366.03;10329615;28;20038;-61
2022/03/31 03:41:26;;;;;;;20.98;7.60;;;;;;;13.86;39.55;96346.41;10334721;28;20084;-61
2022/03/31 03:46:25;;;;;;;22.30;7.15;;;;;;;13.97;39.60;96352.06;10334897;28;20045;-62
2022/03/31 03:51:24;;;;;;;26.08;5.97;;;;;;;13.71;39.85;96313.09;10334536;28;20456;-61
2022/03/31 03:56:23;;;;;;;;;;;;;;;14.11;39.89;96346.34;10333227;28;20475;-61
2022/03/31 04:01:22;;;;;;;19.37;5.73;;;;;;;14.22;40.29;96334.63;10334513;28;19960;-61
2022/03/31 04:06:21;;;;;;;23.85;6.97;;;;;;;14.23;39.66;96313.72;10327323;28;20040;-61
2022/03/31 04:11:20;;;;;;;16.52;6.03;;;;;;;14.27;39.82;96312.69;10333438;28;20113;-61
2022/03/31 04:16:19;;;;;;;21.60;7.03;;;;;;;14.22;40.22;96324.22;10334029;28;20108;-61
2022/03/31 04:21:18;;;;;;;23.33;7.32;;;;;;;14.16;40.17;96346.19;10333049;28;20076;-61
2022/03/31 04:26:17;;;;;;;23.50;6.65;;;;;;;13.83;40.39;96314.38;10332968;28;20037;-61
2022/03/31 04:31:16;;;;;;;21.45;6.25;;;;;;;14.10;40.93;96362.91;10333124;28;20411;-61
2022/03/31 04:36:16;;;;;;;19.25;6.80;;;;;;;13.65;40.88;96276.81;10318736;28;20061;-61
2022/03/31 04:41:14;;;;;;;;;;;;;;;14.15;40.75;96347.09;10304008;28;20080;-62
2022/03/31 04:46:13;;;;;;;19.80;6.07;;;;;;;14.09;41.05;96340.34;10328115;28;19924;-62
2022/03/31 04:51:12;;;;;;;22.60;6.72;;;;;;;14.16;41.54;96341.81;10324656;28;20033;-62
2022/03/31 04:56:11;;;;;;;44.78;8.70;;;;;;;14.17;41.50;96334.81;10325351;28;20052;-62
2022/03/31 05:01:11;;;;;;;28.95;9.07;;;;;;;14.22;41.71;96339.84;10331069;28;20040;-61
2022/03/31 05:06:10;;;;;;;31.95;9.48;;;;;;;14.17;41.65;96364.38;10329086;28;20073;-62
2022/03/31 05:11:09;;;;;;;25.20;7.93;;;;;;;13.66;41.25;96262.88;10331163;28;20467;-61
2022/03/31 05:16:08;;;;;;;;;;;;;;;14.27;41.48;96374.47;10331610;28;20478;-62
2022/03/31 05:21:07;;;;;;;26.85;7.40;;;;;;;14.01;41.38;96325.88;10331091;28;19971;-62
2022/03/31 05:26:06;;;;;;;31.30;7.70;;;;;;;13.88;42.20;96294.19;10330760;28;20029;-62
2022/03/31 05:31:06;;;;;;;61.88;8.38;;;;;;;14.20;43.41;96327.75;10331615;28;20404;-62
2022/03/31 05:36:05;;;;;;;53.95;9.80;;;;;;;14.30;45.04;96356.09;10326600;28;20068;-62
2022/03/31 05:41:04;;;;;;;32.10;7.60;;;;;;;14.20;47.33;96361.66;10330980;28;20064;-62
2022/03/31 05:46:03;;;;;;;57.67;10.38;;;;;;;14.02;49.24;96371.94;10330342;28;20056;-62
2022/03/31 05:51:03;;;;;;;36.28;8.70;;;;;;;13.80;51.73;96395.31;10329182;28;20057;-62
2022/03/31 05:56:02;;;;;;;20.48;6.63;;;;;;;13.65;54.70;96401.91;10309304;28;20061;-62
2022/03/31 06:01:01;;;;;;;25.98;6.95;;;;;;;13.06;56.58;96330.09;10327878;28;20151;-62
2022/03/31 06:06:00;;;;;;;;;;;;;;;13.32;58.04;96409.97;10333378;28;20069;-61
2022/03/31 06:10:59;;;;;;;45.58;21.42;;;;;;;13.13;58.24;96410.56;10327482;28;19940;-61
2022/03/31 06:15:58;;;;;;;31.08;11.20;;;;;;;13.01;58.46;96416.19;10330081;28;20308;-61
2022/03/31 06:20:57;;;;;;;28.45;9.88;;;;;;;13.03;58.59;96419.59;10338408;28;20065;-62
2022/03/31 06:25:57;;;;;;;26.88;10.63;;;;;;;13.15;58.88;96427.00;10341466;28;20069;-61
2022/03/31 06:30:56;;;;;;;30.63;15.30;;;;;;;13.22;58.01;96434.63;10316154;28;20072;-62
2022/03/31 06:35:55;;;;;;;24.00;9.25;;;;;;;13.28;57.13;96423.97;10341659;28;20033;-62
2022/03/31 06:41:14;;;;;;;25.95;13.23;;;;;;;13.44;56.40;96430.38;10340610;28;20037;-62
2022/03/31 06:46:13;;;;;;;31.70;10.50;;;;;;;13.28;55.74;96382.28;10340947;28;20514;-61
2022/03/31 06:51:14;;;;;;;28.13;14.45;;;;;;;13.64;55.21;96431.50;10340503;28;20087;-62
2022/03/31 06:56:14;;;;;;;29.67;14.38;;;;;;;13.66;53.72;96450.56;10340730;28;20278;-61
2022/03/31 07:01:13;;;;;;;27.25;14.55;;;;;;;13.81;53.75;96457.84;10340562;28;20123;-61
2022/03/31 07:06:12;;;;;;;23.38;10.45;;;;;;;13.69;52.62;96434.81;10337382;28;20068;-62
2022/03/31 07:11:11;;;;;;;22.92;9.65;;;;;;;13.93;51.86;96417.44;10332606;28;20065;-62
2022/03/31 07:16:11;;;;;;;43.40;21.00;;;;;;;14.60;50.00;96476.75;10336269;28;20076;-61
2022/03/31 07:21:10;;;;;;;39.45;18.95;;;;;;;14.87;48.51;96468.78;10335885;28;20175;-61
2022/03/31 07:26:10;;;;;;;32.28;18.75;;;;;;;15.10;47.58;96466.13;10335714;28;20099;-61
2022/03/31 07:31:09;;;;;;;22.35;10.18;;;;;;;15.38;47.25;96485.94;10327252;28;20072;-61
2022/03/31 07:36:10;;;;;;;29.13;11.10;;;;;;;15.62;47.17;96505.88;10336039;28;20076;-61
2022/03/31 07:41:09;;;;;;;24.38;8.52;;;;;;;15.91;46.21;96501.22;10335165;28;20468;-62
2022/03/31 07:46:08;;;;;;;23.25;7.57;;;;;;;16.23;45.54;96499.84;10334670;28;20088;-62
2022/03/31 07:51:07;;;;;;;;;;;;;;;16.60;45.11;96484.25;10335351;28;20022;-62
2022/03/31 07:56:06;;;;;;;20.38;8.48;;;;;;;16.69;43.69;96468.94;10335381;28;19952;-62
2022/03/31 08:01:05;;;;;;;21.60;7.00;;;;;;;17.22;43.87;96466.53;10328734;28;20065;-62
2022/03/31 08:06:04;;;;;;;;;;;;;;;17.49;42.91;96444.19;10332835;28;20043;-62
2022/03/31 08:11:03;;;;;;;21.05;9.27;;;;;;;17.81;42.48;96444.41;10334097;28;19937;-62
2022/03/31 08:16:02;;;;;;;;;;;;;;;18.01;41.59;96432.00;10334842;28;20025;-62
2022/03/31 08:21:01;;;;;;;38.70;10.97;;;;;;;18.19;40.21;96445.03;10333597;28;20384;-62
2022/03/31 08:26:01;;;;;;;20.92;6.82;;;;;;;18.25;40.68;96438.63;10333722;28;20499;-62
2022/03/31 08:31:00;;;;;;;20.05;6.05;;;;;;;18.38;40.32;96433.56;10333054;28;20065;-62
2022/03/31 08:35:59;;;;;;;21.88;6.07;;;;;;;18.48;39.95;96437.41;10333073;28;20076;-62
2022/03/31 08:40:58;;;;;;;19.85;6.22;;;;;;;18.50;39.32;96411.03;10331959;28;20037;-62
2022/03/31 08:45:57;;;;;;;25.63;7.13;;;;;;;18.49;39.08;96352.41;10332308;28;20088;-61
2022/03/31 08:50:56;;;;;;;16.05;5.53;;;;;;;18.82;38.36;96404.06;10332450;28;20057;-62
2022/03/31 08:55:55;;;;;;;24.50;6.45;;;;;;;18.69;38.94;96363.59;10332060;28;20072;-62
2022/03/31 09:00:54;;;;;;;21.17;7.30;;;;;;;19.03;38.14;96366.03;10332238;28;20073;-62
2022/03/31 09:05:53;;;;;;;23.08;6.35;;;;;;;19.08;38.38;96357.03;10331876;28;20064;-62
2022/03/31 09:10:57;;;;;;;20.65;6.15;;;;;;;19.43;39.04;96365.50;10330774;28;20032;-62
2022/03/31 09:16:01;;;;;;;19.65;6.65;;;;;;;19.66;38.35;96351.03;10332201;28;20080;-62
2022/03/31 09:21:02;;;;;;;20.40;6.38;;;;;;;19.69;38.29;96327.16;10331998;28;20072;-62
2022/03/31 09:26:08;;;;;;;22.08;6.82;;;;;;;20.09;37.15;96327.34;10331374;28;20447;-62
2022/03/31 09:31:10;;;;;;;19.13;7.13;;;;;;;20.32;36.01;96319.81;10329739;28;20068;-62
2022/03/31 09:36:18;;;;;;;28.48;9.32;;;;;;;20.65;35.63;96320.31;10330831;28;20057;-62
2022/03/31 09:41:18;;;;;;;32.77;14.33;;;;;;;20.69;35.56;96300.72;10331114;28;20084;-62
2022/03/31 09:46:38;;;;;;;26.75;7.18;;;;;;;20.57;36.09;96296.25;10330598;28;20096;-62
2022/03/31 09:51:37;;;;;;;22.58;6.10;;;;;;;20.42;35.95;96305.13;10333706;28;20052;-62
2022/03/31 09:56:40;;;;;;;23.17;6.10;;;;;;;20.66;35.98;96269.28;10338510;28;20060;-62
2022/03/31 10:01:40;;;;;;;31.15;9.45;;;;;;;20.85;35.41;96260.19;10339486;28;20065;-62
2022/03/31 10:06:41;;;;;;;19.20;6.85;;;;;;;21.04;35.36;96257.16;10338525;28;20099;-62
2022/03/31 10:11:44;;;;;;;24.05;9.48;;;;;;;21.03;35.74;96242.28;10338415;28;20073;-62
2022/03/31 10:16:48;;;;;;;29.60;11.93;;;;;;;21.13;34.94;96211.72;10338494;28;20072;-62
2022/03/31 10:21:56;;;;;;;19.85;7.85;;;;;;;21.20;34.95;96235.88;10337827;28;20081;-62
2022/03/31 10:27:01;;;;;;;29.42;6.20;;;;;;;21.18;34.67;96191.13;10338199;28;20065;-62
2022/03/31 10:32:00;;;;;;;18.73;6.45;;;;;;;21.28;34.58;96176.38;10337916;28;20090;-62
2022/03/31 10:37:06;;;;;;;23.90;6.90;;;;;;;21.48;34.35;96155.69;10337872;28;20466;-62
2022/03/31 10:42:07;;;;;;;26.98;7.00;;;;;;;21.88;34.12;96164.25;10337200;28;20057;-62
2022/03/31 10:47:09;;;;;;;24.50;6.38;;;;;;;22.13;33.56;96134.28;10333963;28;20076;-62
2022/03/31 10:52:17;;;;;;;28.98;6.40;;;;;;;22.53;33.81;96141.91;10335394;28;20071;-62
2022/03/31 10:57:18;;;;;;;27.77;6.47;;;;;;;22.83;32.31;96158.25;10336717;28;20096;-62
2022/03/31 11:02:21;;;;;;;26.25;6.03;;;;;;;22.30;32.69;96111.91;10336070;28;20069;-62
2022/03/31 11:07:24;;;;;;;24.67;6.63;;;;;;;21.59;33.25;96063.38;10338291;28;20761;-62
2022/03/31 11:12:26;;;;;;;22.98;6.20;;;;;;;21.71;33.49;96103.88;10339802;28;20034;-62
2022/03/31 11:17:25;;;;;;;26.25;7.70;;;;;;;21.30;33.68;96047.00;10339589;28;20034;-62
2022/03/31 11:22:27;;;;;;;24.40;10.65;;;;;;;21.83;33.35;96134.69;10339322;28;20084;-62
2022/03/31 11:27:38;;;;;;;26.55;7.55;;;;;;;21.74;33.74;96116.88;10339231;28;20037;-62
2022/03/31 11:32:38;;;;;;;36.45;9.63;;;;;;;21.56;34.00;96155.97;10339036;28;20070;-62
2022/03/31 11:37:48;;;;;;;30.55;7.15;;;;;;;21.47;34.37;96151.34;10338866;28;20068;-62
2022/03/31 11:42:51;;;;;;;24.05;6.50;;;;;;;21.25;34.64;96155.50;10338526;28;20075;-62
2022/03/31 11:48:01;;;;;;;25.95;6.97;;;;;;;20.95;35.75;96163.69;10338876;28;20546;-62
2022/03/31 11:53:01;;;;;;;16.17;5.50;;;;;;;20.82;35.63;96157.53;10338866;28;20328;-61
2022/03/31 11:58:00;;;;;;;24.52;6.68;;;;;;;20.57;35.88;96163.63;10338571;28;20333;-62
2022/03/31 12:03:02;;;;;;;24.00;7.13;;;;;;;19.83;36.71;96070.97;10337396;28;20064;-62
2022/03/31 12:08:01;;;;;;;24.65;6.88;;;;;;;20.38;36.78;96195.59;10333811;28;20395;-62
2022/03/31 12:13:01;;;;;;;20.92;6.32;;;;;;;20.15;42.56;96212.88;10334325;28;20117;-62
2022/03/31 12:18:06;;;;;;;23.70;7.43;;;;;;;20.00;42.77;96194.50;10333060;28;20077;-62
2022/03/31 12:23:22;;;;;;;24.85;7.03;;;;;;;20.15;43.60;96213.72;10333758;28;20083;-62
2022/03/31 12:28:25;;;;;;;22.52;6.35;;;;;;;20.31;43.48;96191.69;10334040;28;20518;-62
2022/03/31 12:33:31;;;;;;;27.35;7.43;;;;;;;20.34;44.31;96162.50;10333308;28;20061;-62
2022/03/31 12:38:44;;;;;;;22.15;6.47;;;;;;;20.11;43.76;96156.91;10363339;28;20072;-62
2022/03/31 12:44:04;;;;;;;22.45;7.43;;;;;;;19.96;44.10;96116.63;10345230;28;20065;-62
2022/03/31 12:49:15;;;;;;;24.20;6.78;;;;;;;19.44;43.41;96067.31;10333057;28;20084;-62
2022/03/31 12:54:33;;;;;;;22.63;6.85;;;;;;;19.63;41.95;96081.00;10327589;28;20517;-62
2022/03/31 12:59:34;;;;;;;28.90;7.88;;;;;;;20.09;41.60;96053.47;10310304;28;20072;-62
2022/03/31 13:04:42;;;;;;;23.80;6.32;;;;;;;20.47;40.87;96053.56;10291702;28;20092;-62
2022/03/31 13:09:42;;;;;;;20.35;5.43;;;;;;;20.94;39.80;96035.44;10291452;28;20076;-62
2022/03/31 13:14:45;;;;;;;19.95;5.85;;;;;;;21.26;38.64;96032.34;10291547;28;20080;-62
2022/03/31 13:19:45;;;;;;;18.38;5.65;;;;;;;21.52;37.42;96047.16;10311670;28;20061;-61
2022/03/31 13:24:44;;;;;;;23.92;5.97;;;;;;;21.82;36.58;96043.22;10331046;28;20511;-61
2022/03/31 13:29:44;;;;;;;18.88;6.22;;;;;;;21.93;35.51;96037.97;10331231;28;20547;-61
2022/03/31 13:34:46;;;;;;;24.58;8.27;;;;;;;21.99;35.71;96027.94;10329998;28;20069;-61
2022/03/31 13:39:46;;;;;;;20.65;4.82;;;;;;;21.91;34.28;96049.63;10330902;28;20065;-61
2022/03/31 13:44:46;;;;;;;26.10;4.57;;;;;;;21.55;32.88;96031.09;10331032;28;20061;-62
2022/03/31 13:49:45;;;;;;;22.00;5.25;;;;;;;21.55;34.00;96033.72;10330962;28;20089;-61
2022/03/31 13:54:45;;;;;;;23.55;5.75;;;;;;;21.62;33.57;96009.53;10331173;28;20133;-62
2022/03/31 14:05:02;;;;;;;20.08;5.07;;;;;;;21.34;34.69;96006.25;10332531;28;20073;-62
2022/03/31 14:10:02;;;;;;;25.00;6.47;;;;;;;20.86;34.84;95953.38;10332571;28;20046;-62
2022/03/31 14:15:01;;;;;;;30.35;6.75;;;;;;;20.65;35.34;95956.56;10333890;28;20084;-61
2022/03/31 14:20:00;;;;;;;32.30;8.25;;;;;;;20.68;35.18;95948.47;10333561;28;20514;-62
2022/03/31 14:24:59;;;;;;;26.63;6.25;;;;;;;20.36;35.20;95912.97;10333649;28;20061;-61
2022/03/31 14:30:00;;;;;;;23.40;6.93;;;;;;;20.76;35.60;95960.28;10333517;28;20033;-61
2022/03/31 14:34:59;;;;;;;23.88;6.75;;;;;;;20.55;34.96;95945.00;10333541;28;20030;-62
2022/03/31 14:39:58;;;;;;;33.03;6.97;;;;;;;20.59;35.23;95946.47;10337307;28;20413;-62
2022/03/31 14:44:57;;;;;;;24.42;6.70;;;;;;;20.32;34.73;95903.59;10341117;28;20061;-62
2022/03/31 14:49:56;;;;;;;26.20;7.03;;;;;;;20.32;34.76;95914.13;10340852;28;20084;-62
2022/03/31 14:54:55;;;;;;;25.00;7.95;;;;;;;20.27;34.85;95907.38;10339379;28;20027;-62
2022/03/31 14:59:54;;;;;;;25.55;7.00;;;;;;;20.08;34.61;95876.19;10337410;28;20032;-62
2022/03/31 15:04:53;;;;;;;28.85;6.22;;;;;;;20.09;33.86;95850.72;10334989;28;20487;-61
2022/03/31 15:15:10;;;;;;;28.25;5.68;;;;;;;19.92;32.92;95861.56;10336620;28;20065;-62
2022/03/31 15:20:09;;;;;;;38.83;14.07;;;;;;;19.84;32.15;95857.69;10336171;28;20033;-62
2022/03/31 15:25:10;;;;;;;24.88;5.70;;;;;;;19.92;32.03;95872.94;10335994;28;20068;-62
2022/03/31 15:30:10;;;;;;;38.20;14.60;;;;;;;19.90;31.91;95868.72;10335305;28;20068;-62
2022/03/31 15:35:09;;;;;;;45.72;7.10;;;;;;;19.81;31.98;95833.34;10332631;28;20509;-62
2022/03/31 15:40:10;;;;;;;28.63;5.45;;;;;;;19.64;32.70;95873.97;10331822;28;20057;-62
2022/03/31 15:45:10;;;;;;;20.83;5.10;;;;;;;19.67;32.59;95863.22;10320650;28;20069;-62
2022/03/31 15:50:09;;;;;;;37.22;7.15;;;;;;;19.57;33.46;95856.91;10302370;28;20081;-62
2022/03/31 15:55:11;;;;;;;28.33;4.95;;;;;;;19.50;33.25;95895.91;10325556;28;20065;-62
2022/03/31 16:00:10;;;;;;;26.00;6.43;;;;;;;19.27;33.31;95855.34;10312467;28;20080;-62
2022/03/31 16:05:10;;;;;;;24.77;5.82;;;;;;;19.38;33.83;95860.75;10331629;28;20537;-62
2022/03/31 16:10:10;;;;;;;22.90;5.18;;;;;;;19.47;33.93;95897.91;10309827;28;20524;-62
2022/03/31 16:15:09;;;;;;;23.10;6.20;;;;;;;19.16;33.50;95863.13;10293279;28;20061;-62
2022/03/31 16:20:09;;;;;;;46.13;23.17;;;;;;;19.41;33.52;95905.25;10327706;28;20490;-62
2022/03/31 16:25:08;;;;;;;21.85;8.27;;;;;;;19.38;33.91;95915.97;10308800;28;20056;-62
2022/03/31 16:30:08;;;;;;;30.42;9.23;;;;;;;19.32;34.14;95940.06;10302308;28;20073;-62
2022/03/31 16:35:08;;;;;;;28.65;9.57;;;;;;;19.33;34.19;95978.56;10314392;28;20065;-62
2022/03/31 16:40:08;;;;;;;30.85;9.70;;;;;;;19.14;34.90;95980.69;10318781;28;20061;-62
2022/03/31 16:45:07;;;;;;;22.55;6.13;;;;;;;18.79;35.54;95973.25;10327008;28;20061;-65
2022/03/31 16:50:07;;;;;;;24.42;6.90;;;;;;;18.69;36.30;95964.22;10332220;28;20061;-62
2022/03/31 16:55:06;;;;;;;29.33;5.72;;;;;;;18.50;36.78;95973.22;10331762;28;20441;-62
2022/03/31 17:00:08;;;;;;;24.42;5.45;;;;;;;18.43;37.09;95974.50;10328648;28;20061;-62
2022/03/31 17:05:08;;;;;;;26.58;7.28;;;;;;;18.30;39.19;95987.56;10333651;28;20065;-62
2022/03/31 17:10:07;;;;;;;31.85;8.80;;;;;;;18.04;43.09;95990.91;10335016;28;20057;-62
2022/03/31 17:15:07;;;;;;;37.92;10.63;;;;;;;17.18;45.32;95925.84;10335291;28;20075;-62
2022/03/31 17:20:06;;;;;;;30.63;6.50;;;;;;;16.88;44.42;95910.91;10334618;28;20026;-62
2022/03/31 17:25:06;;;;;;;26.13;5.65;;;;;;;17.07;44.42;95970.16;10334511;28;20080;-62
2022/03/31 17:30:06;;;;;;;23.50;5.88;;;;;;;16.70;44.00;95886.56;10334962;28;20519;-61
2022/03/31 17:35:06;;;;;;;20.85;6.15;;;;;;;16.46;42.52;95861.72;10333946;28;20056;-62
2022/03/31 17:40:06;;;;;;;26.20;6.35;;;;;;;16.92;42.29;95925.53;10334170;28;20061;-61
2022/03/31 17:45:05;;;;;;;27.33;5.55;;;;;;;17.03;41.20;95947.69;10325522;28;20087;-61
2022/03/31 17:50:06;;;;;;;33.42;5.93;;;;;;;17.07;41.13;95886.28;10327294;28;20069;-61
2022/03/31 17:55:08;;;;;;;35.40;6.57;;;;;;;17.04;40.18;95917.91;10330942;28;20057;-61
2022/03/31 18:00:10;;;;;;;33.70;6.57;;;;;;;17.24;39.70;95922.03;10333794;28;20061;-61
2022/03/31 18:05:09;;;;;;;26.38;5.57;;;;;;;17.30;39.36;95919.91;10330935;28;20061;-61
2022/03/31 18:10:12;;;;;;;24.40;5.65;;;;;;;17.22;38.69;95927.38;10315252;28;20073;-61
2022/03/31 18:15:16;;;;;;;20.70;5.80;;;;;;;17.53;38.05;95957.06;10335461;28;20057;-61
2022/03/31 18:20:16;;;;;;;22.55;5.15;;;;;;;17.71;37.91;95960.41;10337541;28;20068;-61
2022/03/31 18:25:20;;;;;;;23.98;6.13;;;;;;;17.78;37.50;95919.81;10337669;28;20057;-61
2022/03/31 18:35:41;;;;;;;22.30;4.82;;;;;;;17.76;37.94;95921.66;10327274;28;20070;-61
2022/03/31 18:40:40;;;;;;;19.58;4.88;;;;;;;17.68;38.18;95932.59;10334564;28;20064;-61
2022/03/31 18:45:39;;;;;;;;;;;;;;;17.60;37.91;95947.91;10337482;28;20070;-61
2022/03/31 18:50:39;;;;;;;24.47;5.13;;;;;;;17.59;37.85;95896.41;10321734;28;19941;-62
2022/03/31 18:55:39;;;;;;;20.13;4.95;;;;;;;17.55;38.05;95913.25;10308610;28;20068;-61
2022/03/31 19:00:39;;;;;;;31.63;6.07;;;;;;;17.42;37.86;95901.78;10296027;28;20058;-61
2022/03/31 19:05:42;;;;;;;27.73;5.80;;;;;;;17.31;37.96;95915.53;10295986;28;20495;-61
2022/03/31 19:10:44;;;;;;;26.35;5.25;;;;;;;17.19;38.31;95932.78;10307398;28;20831;-61
2022/03/31 19:15:43;;;;;;;27.02;6.30;;;;;;;17.08;38.65;95935.16;10311648;28;20068;-61
2022/03/31 19:20:42;;;;;;;;;;;;;;;17.11;38.48;95945.47;10321751;28;20029;-61
2022/03/31 19:25:43;;;;;;;24.92;5.40;;;;;;;17.12;38.43;95973.34;10300576;28;19957;-61
2022/03/31 19:30:44;;;;;;;25.83;5.22;;;;;;;17.02;38.44;95987.91;10296584;28;20065;-61
2022/03/31 19:35:43;;;;;;;24.83;4.65;;;;;;;16.85;38.28;95979.19;10325837;28;20061;-61
2022/03/31 19:40:42;;;;;;;22.48;4.90;;;;;;;16.78;38.79;95982.22;10328760;28;20066;-61
2022/03/31 19:45:41;;;;;;;;;;;;;;;16.72;38.76;95992.09;10335003;28;20924;-61
2022/03/31 19:50:40;;;;;;;24.90;5.67;;;;;;;16.57;39.52;95992.91;10331360;28;19915;-61
2022/03/31 19:55:39;;;;;;;30.77;5.88;;;;;;;16.46;39.88;96011.78;10334490;28;20064;-61
2022/03/31 20:00:38;;;;;;;;;;;;;;;16.30;40.20;95990.81;10335047;28;20044;-61
2022/03/31 20:05:37;;;;;;;19.17;5.00;;;;;;;16.21;40.30;95986.06;10334704;28;20012;-61
2022/03/31 20:10:36;;;;;;;22.60;5.57;;;;;;;16.22;40.08;95973.81;10333780;28;20103;-61
2022/03/31 20:15:35;;;;;;;;;;;;;;;16.25;40.34;95977.09;10334434;28;20036;-61
2022/03/31 20:20:34;;;;;;;20.05;4.88;;;;;;;16.06;41.05;95908.34;10333042;28;20427;-61
2022/03/31 20:25:33;;;;;;;;;;;;;;;16.41;40.83;95965.84;10333835;28;20411;-61
2022/03/31 20:30:31;;;;;;;25.75;5.18;;;;;;;16.62;40.71;95933.25;10333478;28;19916;-61
2022/03/31 20:35:30;;;;;;;;;;;;;;;16.75;40.61;95967.50;10331959;28;20030;-61
2022/03/31 20:40:30;;;;;;;23.80;5.40;;;;;;;16.82;40.59;95947.09;10333172;28;20293;-61
2022/03/31 20:45:29;;;;;;;17.45;4.63;;;;;;;16.89;40.57;95943.22;10332398;28;20397;-61
2022/03/31 20:50:28;;;;;;;24.25;5.28;;;;;;;16.85;40.56;95950.38;10325810;28;20061;-61
2022/03/31 20:55:27;;;;;;;;;;;;;;;16.72;40.50;95944.94;10332829;28;20063;-61
2022/03/31 21:00:27;;;;;;;18.50;4.00;;;;;;;16.30;40.51;95914.91;10332005;28;19996;-61
2022/03/31 21:05:29;;;;;;;17.90;4.43;;;;;;;16.37;40.55;95918.06;10331268;28;20068;-61
2022/03/31 21:10:29;;;;;;;20.80;5.10;;;;;;;16.46;40.62;95959.41;10327247;28;20064;-61
2022/03/31 21:15:28;;;;;;;20.67;4.72;;;;;;;16.34;40.94;95975.78;10323838;28;20057;-61
2022/03/31 21:20:27;;;;;;;;;;;;;;;16.19;41.60;95971.38;10304008;28;20034;-62
2022/03/31 21:25:31;;;;;;;19.13;4.10;;;;;;;16.05;41.78;95993.00;10331482;28;19979;-61
2022/03/31 21:30:30;;;;;;;12.20;4.22;;;;;;;15.68;42.18;95951.19;10330661;28;20474;-61
2022/03/31 21:35:29;;;;;;;16.42;4.20;;;;;;;15.88;42.44;95999.94;10330629;28;20064;-61
2022/03/31 21:40:30;;;;;;;;;;;;;;;15.87;43.16;96019.16;10331431;28;20063;-61
2022/03/31 21:45:29;;;;;;;14.90;3.92;;;;;;;15.86;42.81;96004.41;10330486;28;20394;-61
2022/03/31 21:50:28;;;;;;;;;;;;;;;15.94;42.79;96009.22;10299695;28;20123;-61
2022/03/31 21:55:27;;;;;;;12.07;3.10;;;;;;;15.95;43.04;96008.31;10322958;28;20390;-61
2022/03/31 22:00:38;;;;;;;9.73;2.83;;;;;;;15.99;43.40;95999.38;10330200;28;20033;-61
2022/03/31 22:05:56;;;;;;;12.20;3.08;;;;;;;15.82;43.31;95973.25;10331966;28;20065;-61
2022/03/31 22:16:12;;;;;;;6.95;1.90;;;;;;;15.52;43.70;95954.66;10332381;28;20087;-61
2022/03/31 22:21:11;;;;;;;;;;;;;;;15.78;43.98;96032.66;10333452;28;20025;-61
2022/03/31 22:26:12;;;;;;;6.22;1.83;;;;;;;15.45;44.11;95985.47;10325143;28;20240;-61
2022/03/31 22:31:11;;;;;;;3.97;1.40;;;;;;;15.72;44.46;96016.44;10330034;28;20060;-61
2022/03/31 22:36:10;;;;;;;3.05;1.08;;;;;;;15.68;44.47;95992.19;10329949;28;20065;-61
2022/03/31 22:41:09;;;;;;;3.63;1.15;;;;;;;15.72;44.02;96001.59;10331614;28;20036;-61
2022/03/31 22:46:14;;;;;;;3.63;1.52;;;;;;;15.69;44.41;96009.56;10332410;28;20543;-61
2022/03/31 22:51:13;;;;;;;4.85;1.20;;;;;;;15.09;44.62;95871.38;10332491;28;20028;-61
2022/03/31 22:56:12;;;;;;;;;;;;;;;15.24;45.03;95925.50;10327381;28;20061;-61
2022/03/31 23:01:13;;;;;;;5.53;1.63;;;;;;;15.68;47.02;95966.88;10337192;28;19948;-61
2022/03/31 23:06:18;;;;;;;6.03;1.92;;;;;;;15.61;47.79;95975.97;10337446;28;20076;-61
2022/03/31 23:11:19;;;;;;;11.77;1.70;;;;;;;15.03;48.98;95785.47;10337041;28;20510;-61
2022/03/31 23:16:19;;;;;;;7.55;2.35;;;;;;;15.51;48.99;95880.63;10335935;28;20060;-61
2022/03/31 23:21:18;;;;;;;12.60;3.50;;;;;;;15.48;48.41;95901.69;10336305;28;20065;-61
2022/03/31 23:26:18;;;;;;;;;;;;;;;15.46;48.20;95903.53;10334706;28;20073;-61
2022/03/31 23:31:18;;;;;;;14.52;3.10;;;;;;;15.13;47.83;95864.22;10335449;28;19960;-61